TENO2: Tenkiller Lake

Data processed at Fri May 18 2018 23:30


All information presented herein is the property of the government of the United States of America and may be revised or deleted at any time without prior notice.
Dissemination of this information without the expressed written consent of the Public Affairs Office, Tulsa District U.S. Army Corps of Engineers is strictly prohibited.
These data are gathered electronically and, as presented, have not undergone any form of quality control. These data are not guaranteed to be valid or correct.
Go to home page.
Go to station list.

Upstream stations:

Downstream station:
Previous Day
Next Day
Current Day
    
SHEF ID:       TENO2     Tenkiller Lake
STATION TYPE:  Reservoir
Normal Pool:  Bottom =   594.50, Top =   632.00

               PRECIP PRECIP(A) ELEVATION   STORAGE   TW-ELEV    INFLOW   RELEASE  AIR-TEMP  WIND-DIRWIND-SPEED REL-HUMID SOLAR-RAD   VOLTAGE  BAT-LOAD
                   in        in        ft     ac-ft        ft       cfs       cfs         F       deg       mph         %      W/m2      volt      volt
              Ccp-Rev   Ccp-Rev   Ccp-Rev   Ccp-Rev   Ccp-Rev  Regi-Rev  Regi-Rev   Ccp-Rev   Ccp-Rev   Ccp-Rev   Ccp-Rev   Ccp-Rev   Ccp-Rev   Ccp-Rev
(US/Central)
05/16 00:00      0.02      0.00    633.24    685081    487.95      1514      4597     63.95    208.10      0.40    100.42      0.00     13.78     13.30
05/16 01:00      0.02      0.00    633.21    684686    487.80      1726      4597     63.18    208.10      0.40    100.35      1.00     13.78     13.30
05/16 02:00      0.02      0.00    633.20    684554    487.87      1726      4597     62.85    167.40      0.39    100.48      0.00     13.77     13.30
05/16 03:00      0.01      0.00    633.18    684291    487.79      1407      4597     62.40    163.00      0.40    100.48      0.00     13.78     13.18
05/16 04:00      0.02      0.00    633.16    684027    487.77      1407      4597     61.97    143.90      0.31    100.42      0.00     13.77     13.30
05/16 05:00      0.02      0.00    633.14    683763    487.89      1088      4597     62.40    220.70      0.34    100.48      0.00     13.77     13.30
05/16 06:00      0.01      0.00    633.11    683368    487.77      1726      4597     63.50    194.50      0.39    100.54      0.00     13.77     13.30
05/16 07:00      0.02      0.00    633.09    683104    487.52      1530      4597     65.16    187.20      0.39    100.66      5.00     13.77     13.30
05/16 08:00      0.01      0.00    633.09    683104    487.29      1294      4597     66.69    155.20      0.21    100.84     36.00     13.77     13.24
05/16 09:00      0.02      0.00    633.07    682841    487.11      1294      3616     68.23    186.60      0.97    100.90    154.00     13.77     13.24
05/16 10:00      0.01      0.00    633.05    682577    487.14      1012      3616     71.20    192.20      0.68    100.42    186.00     13.77     13.24
05/16 11:00      0.02      0.00    633.01    682050    487.12        93      3616     74.71    111.00      1.26     89.12    474.00     13.77     13.24
05/16 12:00      0.01      0.00    633.03    682313    487.11      1715      3616     76.14    212.30      0.89     85.46    315.00     13.77     13.12
05/16 13:00      0.04      0.02    632.98    681643    487.14      2111      3616     67.46    219.10      1.99     95.17    117.00     13.77     13.18
05/16 14:00      0.02      0.06    633.01    682050    487.07      2170      3616     65.37    149.10      2.47     99.80     63.00     13.77     13.18
05/16 15:00      0.01      0.11    633.00    681918    487.08      2561      3616     66.04    167.60      1.35     99.87     84.00     13.77     13.18
05/16 16:00      0.01      0.05    632.98    681643    487.03      2620      3616     67.03    130.50      0.74     99.93    155.00     13.77     13.18
05/16 17:00      0.01      0.00    632.97    681506    487.08      1577      3616     67.24    235.90      1.15     99.87    163.00     13.77     13.18
05/16 18:00      0.01      0.00    632.95    681232    486.60      1505      3616     67.57    150.70      0.20    100.05     99.00     13.77     13.18
05/16 19:00      0.01      0.00    632.97    681506    482.70      1779         0     68.88    156.50      0.17     92.66    160.00     13.77     13.18
05/16 20:00      0.00      0.00    632.99    681781    482.37      1720         0     66.25    286.20      0.34    100.11     42.00     13.77     13.24
05/16 21:00      0.01      0.00    632.99    681781    482.31      2299         0     63.84    134.30      0.26    100.23      2.00     13.77     13.30
05/16 22:00      0.01      0.00    633.00    681918    482.28      1847         0     61.86    250.90      0.24    100.29      0.00     13.77     13.30
05/16 23:00      0.00      0.00    633.02    682182    482.28      1728         0     60.98    112.00      0.40    100.29      1.00     13.77     13.30